createdAt,value
2022-10-04T00:01:49.202Z,100585.06
2022-10-04T00:05:54.689Z,100584.06
2022-10-04T00:10:03.887Z,100581.91
2022-10-04T00:14:18.285Z,100576.88
2022-10-04T00:18:32.949Z,100592.94
2022-10-04T00:22:34.775Z,100595.34
2022-10-04T00:26:39.550Z,100591.75
2022-10-04T00:30:41.304Z,100589.06
2022-10-04T00:34:48.797Z,100583.81
2022-10-04T00:39:27.660Z,100579.34
2022-10-04T00:43:44.063Z,100580.03
2022-10-04T00:47:48.890Z,100585.66
2022-10-04T00:51:59.331Z,100580.25
2022-10-04T00:56:03.398Z,100573.03
2022-10-04T01:00:22.716Z,100578.47
2022-10-04T01:08:49.582Z,100566.59
2022-10-04T01:13:01.041Z,100566.13
2022-10-04T01:17:06.136Z,100562.72
2022-10-04T01:21:20.745Z,100558.03
2022-10-04T01:25:48.442Z,100554.56
2022-10-04T01:29:51.776Z,100562.72
2022-10-04T01:33:55.132Z,100556.97
2022-10-04T01:37:56.956Z,100561.09
2022-10-04T01:42:31.064Z,100554.94
2022-10-04T01:46:36.330Z,100552.69
2022-10-04T01:50:52.195Z,100566.13
2022-10-04T01:55:22.149Z,100560.94
2022-10-04T02:00:03.158Z,100565.44
2022-10-04T02:04:23.382Z,100555.53
2022-10-04T02:08:46.381Z,100550.13
2022-10-04T02:12:56.326Z,100550.53
2022-10-04T02:17:04.332Z,100542.94
2022-10-04T02:21:07.363Z,100550.81
2022-10-04T02:25:09.844Z,100543.00
2022-10-04T02:29:11.659Z,100540.31
2022-10-04T02:33:13.511Z,100544.50
2022-10-04T02:37:15.435Z,100530.19
2022-10-04T02:41:29.745Z,100529.72
2022-10-04T02:45:41.030Z,100547.91
2022-10-04T02:49:59.281Z,100534.25
2022-10-04T02:54:08.042Z,100544.06
2022-10-04T02:58:15.564Z,100529.00
2022-10-04T03:02:30.399Z,100537.91
2022-10-04T03:06:32.683Z,100528.75
2022-10-04T03:10:35.518Z,100528.91
2022-10-04T03:14:37.574Z,100529.50
2022-10-04T03:18:39.396Z,100536.41
2022-10-04T03:22:46.119Z,100529.13
2022-10-04T03:26:52.869Z,100520.66
2022-10-04T03:30:54.723Z,100526.59
2022-10-04T03:35:04.634Z,100529.38
2022-10-04T03:39:09.305Z,100528.13
2022-10-04T03:43:12.905Z,100532.19
2022-10-04T03:47:33.992Z,100535.75
2022-10-04T03:51:36.394Z,100534.31
2022-10-04T03:55:45.827Z,100531.53
2022-10-04T03:59:47.859Z,100543.31
2022-10-04T04:04:13.907Z,100556.88
2022-10-04T04:08:34.222Z,100535.34
2022-10-04T04:12:50.191Z,100529.38
2022-10-04T04:16:53.752Z,100531.91
2022-10-04T04:20:59.155Z,100534.53
2022-10-04T04:25:02.134Z,100532.47
2022-10-04T04:29:15.875Z,100543.63
2022-10-04T04:33:27.185Z,100539.63
2022-10-04T04:37:29.147Z,100547.59
2022-10-04T04:41:31.900Z,100553.66
2022-10-04T04:45:34.070Z,100547.06
2022-10-04T04:49:39.814Z,100549.22
2022-10-04T04:53:43.359Z,100541.25
2022-10-04T04:58:41.624Z,100551.94
2022-10-04T05:02:54.936Z,100549.53
2022-10-04T05:07:06.369Z,100556.81
2022-10-04T05:11:09.428Z,100550.31
2022-10-04T05:15:11.539Z,100552.69
2022-10-04T05:19:35.087Z,100546.22
2022-10-04T05:23:38.289Z,100559.44
2022-10-04T05:27:51.996Z,100565.97
2022-10-04T05:32:26.642Z,100557.19
2022-10-04T05:36:43.422Z,100575.13
2022-10-04T05:41:33.372Z,100562.97
2022-10-04T05:45:36.714Z,100563.84
2022-10-04T05:49:46.526Z,100558.50
2022-10-04T05:53:49.969Z,100567.19
2022-10-04T05:58:01.452Z,100575.78
2022-10-04T06:02:20.312Z,100581.81
2022-10-04T06:06:43.637Z,100585.72
2022-10-04T06:11:13.406Z,100588.09
2022-10-04T06:15:28.598Z,100584.44
2022-10-04T06:20:03.812Z,100594.44
2022-10-04T06:24:12.324Z,100580.22
2022-10-04T06:28:23.388Z,100587.56
2022-10-04T06:32:54.491Z,100588.06
2022-10-04T06:37:05.877Z,100590.38
2022-10-04T06:41:38.573Z,100588.34
2022-10-04T06:46:11.887Z,100594.69
2022-10-04T06:50:43.916Z,100592.81
2022-10-04T06:55:26.590Z,100588.75
2022-10-04T07:00:03.476Z,100601.28
2022-10-04T07:04:26.654Z,100595.69
2022-10-04T07:08:45.044Z,100601.63
2022-10-04T07:13:06.237Z,100601.47
2022-10-04T07:17:19.986Z,100592.63
2022-10-04T07:21:21.843Z,100588.53
2022-10-04T07:25:30.805Z,100591.72
2022-10-04T07:29:41.757Z,100584.56
2022-10-04T07:33:48.344Z,100590.50
2022-10-04T07:37:59.977Z,100601.44
2022-10-04T07:42:29.523Z,100603.88
2022-10-04T07:46:43.293Z,100608.81
2022-10-04T07:51:34.636Z,100612.59
2022-10-04T07:56:02.529Z,100614.25
2022-10-04T08:00:22.418Z,100621.84
2022-10-04T08:04:31.275Z,100608.50
2022-10-04T08:09:20.980Z,100607.97
2022-10-04T08:13:28.518Z,100610.75
2022-10-04T08:18:22.757Z,100610.75
2022-10-04T08:22:35.000Z,100627.25
2022-10-04T08:27:08.911Z,100627.69
2022-10-04T08:31:39.454Z,100639.25
2022-10-04T08:36:00.361Z,100630.38
2022-10-04T08:40:13.251Z,100636.00
2022-10-04T08:44:34.499Z,100638.78
2022-10-04T08:49:05.955Z,100633.63
2022-10-04T08:53:32.638Z,100637.06
2022-10-04T08:58:05.256Z,100647.06
2022-10-04T09:02:41.615Z,100646.63
2022-10-04T09:07:21.420Z,100647.75
2022-10-04T09:12:15.468Z,100646.19
2022-10-04T09:16:26.487Z,100646.22
2022-10-04T09:20:59.133Z,100634.69
2022-10-04T09:25:44.780Z,100640.88
2022-10-04T09:30:06.520Z,100629.28
2022-10-04T09:34:27.260Z,100635.78
2022-10-04T09:39:01.086Z,100630.59
2022-10-04T09:43:35.987Z,100625.69
2022-10-04T09:48:25.826Z,100635.59
2022-10-04T09:52:45.244Z,100630.59
2022-10-04T09:57:43.247Z,100632.31
2022-10-04T10:02:38.968Z,100633.28
2022-10-04T10:07:22.406Z,100627.72
2022-10-04T10:12:50.352Z,100633.59
2022-10-04T10:16:53.530Z,100631.19
2022-10-04T10:21:18.345Z,100628.25
2022-10-04T10:26:09.400Z,100609.31
2022-10-04T10:30:28.194Z,100632.47
2022-10-04T10:34:42.663Z,100631.56
2022-10-04T10:38:58.611Z,100627.78
2022-10-04T10:43:18.484Z,100624.63
2022-10-04T10:48:00.673Z,100631.19
2022-10-04T10:52:39.450Z,100621.78
2022-10-04T10:57:00.905Z,100642.06
2022-10-04T11:01:35.225Z,100637.97
2022-10-04T11:06:05.218Z,100626.69
2022-10-04T11:10:26.666Z,100614.03
2022-10-04T11:15:21.244Z,100611.88
2022-10-04T11:20:05.527Z,100609.16
2022-10-04T11:24:47.171Z,100608.59
2022-10-04T11:29:10.395Z,100602.25
2022-10-04T11:33:43.141Z,100605.59
2022-10-04T11:38:12.159Z,100605.97
2022-10-04T11:42:37.026Z,100595.91
2022-10-04T11:47:34.316Z,100595.28
2022-10-04T11:51:47.889Z,100596.47
2022-10-04T11:56:19.439Z,100589.50
2022-10-04T12:00:23.480Z,100588.31
2022-10-04T12:05:32.512Z,100569.47
2022-10-04T12:10:17.004Z,100590.44
2022-10-04T12:14:34.393Z,100582.81
2022-10-04T12:19:00.088Z,100593.63
2022-10-04T12:23:29.669Z,100573.78
2022-10-04T12:28:14.002Z,100568.19
2022-10-04T12:32:24.658Z,100568.28
2022-10-04T12:37:10.597Z,100561.75
2022-10-04T12:41:51.529Z,100557.97
2022-10-04T12:46:27.172Z,100552.09
2022-10-04T12:51:09.388Z,100558.75
2022-10-04T12:55:35.827Z,100557.97
2022-10-04T13:00:14.794Z,100551.59
2022-10-04T13:04:41.099Z,100552.09
2022-10-04T13:09:08.588Z,100545.19
2022-10-04T13:13:46.049Z,100549.63
2022-10-04T13:18:14.541Z,100551.38
2022-10-04T13:23:02.304Z,100550.69
2022-10-04T13:27:42.091Z,100543.09
2022-10-04T13:32:00.619Z,100547.09
2022-10-04T13:36:11.719Z,100545.44
2022-10-04T13:40:42.594Z,100540.16
2022-10-04T13:45:17.570Z,100541.63
2022-10-04T13:50:00.895Z,100550.09
2022-10-04T13:54:31.429Z,100539.38
2022-10-04T13:59:22.055Z,100539.38
2022-10-04T14:04:31.350Z,100543.16
2022-10-04T14:08:59.764Z,100528.06
2022-10-04T14:13:19.392Z,100534.66
2022-10-04T14:18:16.815Z,100526.63
2022-10-04T14:22:52.040Z,100531.47
2022-10-04T14:27:34.441Z,100528.19
2022-10-04T14:32:09.492Z,100525.06
2022-10-04T14:37:09.513Z,100532.41
2022-10-04T14:46:58.360Z,100515.34
2022-10-04T14:51:38.569Z,100497.34
2022-10-04T14:56:06.385Z,100491.00
2022-10-04T15:00:23.846Z,100504.53
2022-10-04T15:04:51.429Z,100507.72
2022-10-04T15:09:18.643Z,100511.47
2022-10-04T15:13:55.809Z,100493.69
2022-10-04T15:18:05.392Z,100500.88
2022-10-04T15:22:43.573Z,100477.25
2022-10-04T15:27:39.762Z,100462.66
2022-10-04T15:32:48.433Z,100462.94
2022-10-04T15:37:15.902Z,100457.34
2022-10-04T15:41:46.099Z,100464.38
2022-10-04T15:46:38.472Z,100453.53
2022-10-04T15:51:31.622Z,100444.56
2022-10-04T16:01:19.819Z,100440.25
2022-10-04T16:06:07.780Z,100449.09
2022-10-04T16:10:41.225Z,100432.44
2022-10-04T16:14:52.425Z,100422.06
2022-10-04T16:20:02.502Z,100436.38
2022-10-04T16:24:55.339Z,100432.72
2022-10-04T16:29:29.551Z,100451.22
2022-10-04T16:34:20.017Z,100436.97
2022-10-04T16:38:27.109Z,100449.22
2022-10-04T16:43:03.333Z,100452.25
2022-10-04T16:47:50.713Z,100449.03
2022-10-04T16:52:13.604Z,100469.91
2022-10-04T16:56:18.428Z,100471.25
2022-10-04T17:01:39.397Z,100470.56
2022-10-04T17:06:04.624Z,100483.94
2022-10-04T17:10:56.157Z,100469.44
2022-10-04T17:16:00.256Z,100465.66
2022-10-04T17:27:19.947Z,100478.03
2022-10-04T17:32:16.251Z,100470.44
2022-10-04T18:34:50.603Z,100521.94
2022-10-04T18:40:10.721Z,100526.34
2022-10-04T18:45:09.016Z,100515.63
2022-10-04T18:49:53.388Z,100523.94
2022-10-04T18:54:44.163Z,100523.13
2022-10-04T18:59:58.366Z,100519.91
2022-10-04T19:04:58.858Z,100523.50
2022-10-04T19:09:56.194Z,100534.22
2022-10-04T19:31:32.100Z,100548.44
2022-10-04T19:36:56.497Z,100557.00
2022-10-04T19:42:14.222Z,100567.13
2022-10-04T19:47:24.465Z,100564.97
2022-10-04T19:52:11.403Z,100560.84
2022-10-04T20:01:01.626Z,100580.59
2022-10-04T20:11:01.097Z,100585.28
2022-10-04T20:16:13.137Z,100586.94
2022-10-04T20:22:07.234Z,100602.56
2022-10-04T20:26:12.738Z,100603.25
2022-10-04T20:30:35.150Z,100592.75
2022-10-04T20:34:49.989Z,100602.97
2022-10-04T20:39:26.356Z,100612.06
2022-10-04T20:43:28.263Z,100614.41
2022-10-04T20:47:49.697Z,100595.78
2022-10-04T20:51:52.832Z,100607.78
2022-10-04T21:00:58.161Z,100603.38
2022-10-04T21:05:14.877Z,100614.00
2022-10-04T21:09:16.742Z,100609.84
2022-10-04T21:13:42.216Z,100615.94
2022-10-04T21:17:58.499Z,100614.13
2022-10-04T21:22:04.527Z,100622.00
2022-10-04T21:26:26.137Z,100633.69
2022-10-04T21:30:28.171Z,100633.41
2022-10-04T21:34:53.160Z,100628.44
2022-10-04T21:38:59.785Z,100628.13
2022-10-04T21:43:01.923Z,100625.47
2022-10-04T21:47:03.902Z,100626.56
2022-10-04T21:51:05.769Z,100629.34
2022-10-04T21:55:10.712Z,100620.53
2022-10-04T21:59:12.701Z,100615.22
2022-10-04T22:03:14.560Z,100608.59
2022-10-04T22:07:16.429Z,100606.41
2022-10-04T22:11:18.510Z,100605.88
2022-10-04T22:15:21.930Z,100595.25
2022-10-04T22:19:23.927Z,100614.06
2022-10-04T22:23:28.335Z,100621.91
2022-10-04T22:27:30.368Z,100607.13
2022-10-04T22:31:33.348Z,100619.19
2022-10-04T22:35:36.116Z,100605.09
2022-10-04T22:39:38.050Z,100593.75
2022-10-04T22:43:39.961Z,100565.47
2022-10-04T22:47:44.251Z,100563.50
2022-10-04T22:51:47.637Z,100557.66
2022-10-04T22:55:50.666Z,100553.97
2022-10-04T22:59:52.873Z,100537.72
2022-10-04T23:03:54.792Z,100540.09
2022-10-04T23:07:56.788Z,100512.97
2022-10-04T23:11:58.708Z,100518.13
2022-10-04T23:16:13.880Z,100522.22
2022-10-04T23:20:18.684Z,100511.88
2022-10-04T23:24:22.398Z,100517.03
2022-10-04T23:28:24.436Z,100517.63
2022-10-04T23:32:26.385Z,100503.00
2022-10-04T23:36:28.196Z,100505.09
2022-10-04T23:40:30.080Z,100496.13
2022-10-04T23:44:35.981Z,100491.03
2022-10-04T23:48:37.947Z,100500.84
2022-10-04T23:52:39.819Z,100478.38
2022-10-04T23:56:41.763Z,100479.94
